sensor_id;sensor_type;location;lat;lon;timestamp;temperature;humidity
71978;DHT22;59848;48.158;11.512;2022-07-06T00:02:20;19.40;54.30
71978;DHT22;59848;48.158;11.512;2022-07-06T00:04:46;19.40;54.60
71978;DHT22;59848;48.158;11.512;2022-07-06T00:07:11;19.40;54.70
71978;DHT22;59848;48.158;11.512;2022-07-06T00:09:39;19.50;55.00
71978;DHT22;59848;48.158;11.512;2022-07-06T00:12:05;19.40;55.20
71978;DHT22;59848;48.158;11.512;2022-07-06T00:14:31;19.40;55.10
71978;DHT22;59848;48.158;11.512;2022-07-06T00:16:56;19.40;55.40
71978;DHT22;59848;48.158;11.512;2022-07-06T00:19:22;19.30;55.80
71978;DHT22;59848;48.158;11.512;2022-07-06T00:21:47;19.30;56.00
71978;DHT22;59848;48.158;11.512;2022-07-06T00:24:13;19.20;56.40
71978;DHT22;59848;48.158;11.512;2022-07-06T00:26:38;19.10;57.00
71978;DHT22;59848;48.158;11.512;2022-07-06T00:29:04;19.00;57.40
71978;DHT22;59848;48.158;11.512;2022-07-06T00:31:29;19.00;58.00
71978;DHT22;59848;48.158;11.512;2022-07-06T00:33:55;18.80;58.50
71978;DHT22;59848;48.158;11.512;2022-07-06T00:36:20;18.70;59.10
71978;DHT22;59848;48.158;11.512;2022-07-06T00:38:46;18.70;59.70
71978;DHT22;59848;48.158;11.512;2022-07-06T00:41:13;18.60;60.10
71978;DHT22;59848;48.158;11.512;2022-07-06T00:43:56;18.60;60.30
71978;DHT22;59848;48.158;11.512;2022-07-06T00:46:31;18.60;60.50
71978;DHT22;59848;48.158;11.512;2022-07-06T00:48:57;18.60;61.00
71978;DHT22;59848;48.158;11.512;2022-07-06T00:51:28;18.60;61.10
71978;DHT22;59848;48.158;11.512;2022-07-06T00:53:55;18.60;61.00
71978;DHT22;59848;48.158;11.512;2022-07-06T00:56:23;18.70;61.10
71978;DHT22;59848;48.158;11.512;2022-07-06T00:58:49;18.70;61.00
71978;DHT22;59848;48.158;11.512;2022-07-06T01:01:15;18.70;60.90
71978;DHT22;59848;48.158;11.512;2022-07-06T01:03:40;18.80;60.70
71978;DHT22;59848;48.158;11.512;2022-07-06T01:06:06;18.80;60.80
71978;DHT22;59848;48.158;11.512;2022-07-06T01:08:31;18.70;60.90
71978;DHT22;59848;48.158;11.512;2022-07-06T01:10:57;18.70;61.40
71978;DHT22;59848;48.158;11.512;2022-07-06T01:13:24;18.70;61.60
71978;DHT22;59848;48.158;11.512;2022-07-06T01:15:51;18.50;61.90
71978;DHT22;59848;48.158;11.512;2022-07-06T01:18:17;18.40;62.20
71978;DHT22;59848;48.158;11.512;2022-07-06T01:20:42;18.30;62.50
71978;DHT22;59848;48.158;11.512;2022-07-06T01:23:08;18.20;63.10
71978;DHT22;59848;48.158;11.512;2022-07-06T01:25:33;18.20;63.10
71978;DHT22;59848;48.158;11.512;2022-07-06T01:27:59;18.20;63.10
71978;DHT22;59848;48.158;11.512;2022-07-06T01:30:24;18.20;63.20
71978;DHT22;59848;48.158;11.512;2022-07-06T01:32:50;18.20;63.00
71978;DHT22;59848;48.158;11.512;2022-07-06T01:35:16;18.20;62.80
71978;DHT22;59848;48.158;11.512;2022-07-06T01:37:42;18.20;62.30
71978;DHT22;59848;48.158;11.512;2022-07-06T01:40:10;18.20;62.20
71978;DHT22;59848;48.158;11.512;2022-07-06T01:42:36;18.10;61.90
71978;DHT22;59848;48.158;11.512;2022-07-06T01:45:03;18.20;62.10
71978;DHT22;59848;48.158;11.512;2022-07-06T01:47:29;18.20;62.00
71978;DHT22;59848;48.158;11.512;2022-07-06T01:49:58;18.10;62.10
71978;DHT22;59848;48.158;11.512;2022-07-06T01:52:24;18.10;61.90
71978;DHT22;59848;48.158;11.512;2022-07-06T01:54:49;18.20;62.10
71978;DHT22;59848;48.158;11.512;2022-07-06T01:57:15;18.20;62.20
71978;DHT22;59848;48.158;11.512;2022-07-06T01:59:40;18.00;62.00
71978;DHT22;59848;48.158;11.512;2022-07-06T02:02:06;18.00;62.00
71978;DHT22;59848;48.158;11.512;2022-07-06T02:04:31;17.90;62.40
71978;DHT22;59848;48.158;11.512;2022-07-06T02:06:57;17.80;62.60
71978;DHT22;59848;48.158;11.512;2022-07-06T02:09:22;17.70;62.80
71978;DHT22;59848;48.158;11.512;2022-07-06T02:11:48;17.70;62.80
71978;DHT22;59848;48.158;11.512;2022-07-06T02:14:13;17.60;63.20
71978;DHT22;59848;48.158;11.512;2022-07-06T02:16:39;17.50;63.60
71978;DHT22;59848;48.158;11.512;2022-07-06T02:19:05;17.50;63.70
71978;DHT22;59848;48.158;11.512;2022-07-06T02:21:31;17.50;63.80
71978;DHT22;59848;48.158;11.512;2022-07-06T02:23:57;17.40;63.90
71978;DHT22;59848;48.158;11.512;2022-07-06T02:26:22;17.40;64.10
71978;DHT22;59848;48.158;11.512;2022-07-06T02:28:48;17.40;64.50
71978;DHT22;59848;48.158;11.512;2022-07-06T02:31:14;17.40;64.20
71978;DHT22;59848;48.158;11.512;2022-07-06T02:33:40;17.30;64.80
71978;DHT22;59848;48.158;11.512;2022-07-06T02:36:06;17.40;64.60
71978;DHT22;59848;48.158;11.512;2022-07-06T02:38:31;17.40;64.40
71978;DHT22;59848;48.158;11.512;2022-07-06T02:40:57;17.40;64.50
71978;DHT22;59848;48.158;11.512;2022-07-06T02:43:22;17.30;64.50
71978;DHT22;59848;48.158;11.512;2022-07-06T02:45:48;17.40;64.70
71978;DHT22;59848;48.158;11.512;2022-07-06T02:48:13;17.30;64.80
71978;DHT22;59848;48.158;11.512;2022-07-06T02:50:39;17.20;64.90
71978;DHT22;59848;48.158;11.512;2022-07-06T02:53:05;17.20;65.20
71978;DHT22;59848;48.158;11.512;2022-07-06T02:55:30;17.20;65.80
71978;DHT22;59848;48.158;11.512;2022-07-06T02:57:56;17.20;65.70
71978;DHT22;59848;48.158;11.512;2022-07-06T03:00:22;17.20;65.80
71978;DHT22;59848;48.158;11.512;2022-07-06T03:02:47;17.00;66.10
71978;DHT22;59848;48.158;11.512;2022-07-06T03:05:13;16.80;66.50
71978;DHT22;59848;48.158;11.512;2022-07-06T03:07:38;16.70;67.20
71978;DHT22;59848;48.158;11.512;2022-07-06T03:10:04;16.70;67.40
71978;DHT22;59848;48.158;11.512;2022-07-06T03:12:30;16.70;67.70
71978;DHT22;59848;48.158;11.512;2022-07-06T03:14:55;16.60;67.70
71978;DHT22;59848;48.158;11.512;2022-07-06T03:17:21;16.60;67.70
71978;DHT22;59848;48.158;11.512;2022-07-06T03:19:47;16.60;68.20
71978;DHT22;59848;48.158;11.512;2022-07-06T03:22:12;16.70;68.20
71978;DHT22;59848;48.158;11.512;2022-07-06T03:24:38;16.70;68.00
71978;DHT22;59848;48.158;11.512;2022-07-06T03:27:04;16.70;67.80
71978;DHT22;59848;48.158;11.512;2022-07-06T03:29:30;16.80;67.60
71978;DHT22;59848;48.158;11.512;2022-07-06T03:31:55;16.70;67.80
71978;DHT22;59848;48.158;11.512;2022-07-06T03:34:21;16.80;68.00
71978;DHT22;59848;48.158;11.512;2022-07-06T03:36:46;16.80;68.00
71978;DHT22;59848;48.158;11.512;2022-07-06T03:39:12;16.70;68.30
71978;DHT22;59848;48.158;11.512;2022-07-06T03:41:37;16.60;68.60
71978;DHT22;59848;48.158;11.512;2022-07-06T03:44:03;16.50;69.00
71978;DHT22;59848;48.158;11.512;2022-07-06T03:46:29;16.50;69.30
71978;DHT22;59848;48.158;11.512;2022-07-06T03:48:55;16.50;69.30
71978;DHT22;59848;48.158;11.512;2022-07-06T03:51:20;16.60;69.30
71978;DHT22;59848;48.158;11.512;2022-07-06T03:53:46;16.50;69.30
71978;DHT22;59848;48.158;11.512;2022-07-06T03:56:11;16.50;69.50
71978;DHT22;59848;48.158;11.512;2022-07-06T03:59:00;16.60;69.50
71978;DHT22;59848;48.158;11.512;2022-07-06T04:01:26;16.60;69.50
71978;DHT22;59848;48.158;11.512;2022-07-06T04:03:52;16.70;69.20
71978;DHT22;59848;48.158;11.512;2022-07-06T04:06:18;16.70;69.40
71978;DHT22;59848;48.158;11.512;2022-07-06T04:08:43;16.70;69.30
71978;DHT22;59848;48.158;11.512;2022-07-06T04:11:09;16.70;69.10
71978;DHT22;59848;48.158;11.512;2022-07-06T04:13:35;16.80;69.20
71978;DHT22;59848;48.158;11.512;2022-07-06T04:16:00;16.90;69.10
71978;DHT22;59848;48.158;11.512;2022-07-06T04:18:26;16.90;69.10
71978;DHT22;59848;48.158;11.512;2022-07-06T04:20:52;17.10;68.70
71978;DHT22;59848;48.158;11.512;2022-07-06T04:23:18;17.20;68.40
71978;DHT22;59848;48.158;11.512;2022-07-06T04:25:43;17.40;68.00
71978;DHT22;59848;48.158;11.512;2022-07-06T04:28:09;17.40;67.60
71978;DHT22;59848;48.158;11.512;2022-07-06T04:30:34;17.30;68.20
71978;DHT22;59848;48.158;11.512;2022-07-06T04:33:00;17.50;68.10
71978;DHT22;59848;48.158;11.512;2022-07-06T04:35:26;17.50;68.10
71978;DHT22;59848;48.158;11.512;2022-07-06T04:37:51;17.70;68.00
71978;DHT22;59848;48.158;11.512;2022-07-06T04:40:17;17.60;68.20
71978;DHT22;59848;48.158;11.512;2022-07-06T04:42:43;17.70;68.10
71978;DHT22;59848;48.158;11.512;2022-07-06T04:45:09;17.70;68.00
71978;DHT22;59848;48.158;11.512;2022-07-06T04:47:34;17.70;68.20
71978;DHT22;59848;48.158;11.512;2022-07-06T04:50:01;17.80;68.10
71978;DHT22;59848;48.158;11.512;2022-07-06T04:52:26;17.70;68.50
71978;DHT22;59848;48.158;11.512;2022-07-06T04:54:54;17.80;68.60
71978;DHT22;59848;48.158;11.512;2022-07-06T04:57:19;17.80;68.80
71978;DHT22;59848;48.158;11.512;2022-07-06T04:59:45;17.90;68.50
71978;DHT22;59848;48.158;11.512;2022-07-06T05:02:10;18.20;68.20
71978;DHT22;59848;48.158;11.512;2022-07-06T05:04:36;18.20;67.80
71978;DHT22;59848;48.158;11.512;2022-07-06T05:07:02;18.50;66.90
71978;DHT22;59848;48.158;11.512;2022-07-06T05:09:28;18.70;66.20
71978;DHT22;59848;48.158;11.512;2022-07-06T05:11:53;18.70;66.20
71978;DHT22;59848;48.158;11.512;2022-07-06T05:14:19;18.80;65.80
71978;DHT22;59848;48.158;11.512;2022-07-06T05:16:44;19.00;65.40
71978;DHT22;59848;48.158;11.512;2022-07-06T05:19:10;19.20;64.90
71978;DHT22;59848;48.158;11.512;2022-07-06T05:21:35;19.30;63.70
71978;DHT22;59848;48.158;11.512;2022-07-06T05:24:01;19.50;61.60
71978;DHT22;59848;48.158;11.512;2022-07-06T05:26:26;19.60;61.50
71978;DHT22;59848;48.158;11.512;2022-07-06T05:28:52;20.00;60.30
71978;DHT22;59848;48.158;11.512;2022-07-06T05:31:17;20.20;59.90
71978;DHT22;59848;48.158;11.512;2022-07-06T05:33:43;20.30;59.40
71978;DHT22;59848;48.158;11.512;2022-07-06T05:36:09;20.50;58.80
71978;DHT22;59848;48.158;11.512;2022-07-06T05:38:34;20.30;59.20
71978;DHT22;59848;48.158;11.512;2022-07-06T05:41:00;20.30;58.40
71978;DHT22;59848;48.158;11.512;2022-07-06T05:43:25;20.30;58.60
71978;DHT22;59848;48.158;11.512;2022-07-06T05:45:51;20.40;58.80
71978;DHT22;59848;48.158;11.512;2022-07-06T05:48:16;20.50;58.50
71978;DHT22;59848;48.158;11.512;2022-07-06T05:51:01;20.20;57.50
71978;DHT22;59848;48.158;11.512;2022-07-06T05:53:26;20.30;58.20
71978;DHT22;59848;48.158;11.512;2022-07-06T05:55:52;20.30;57.90
71978;DHT22;59848;48.158;11.512;2022-07-06T05:58:18;20.60;57.10
71978;DHT22;59848;48.158;11.512;2022-07-06T06:00:44;20.70;56.50
71978;DHT22;59848;48.158;11.512;2022-07-06T06:03:10;20.30;57.40
71978;DHT22;59848;48.158;11.512;2022-07-06T06:05:35;20.20;57.80
71978;DHT22;59848;48.158;11.512;2022-07-06T06:08:01;20.10;58.70
71978;DHT22;59848;48.158;11.512;2022-07-06T06:10:26;20.30;57.60
71978;DHT22;59848;48.158;11.512;2022-07-06T06:12:52;20.40;57.60
71978;DHT22;59848;48.158;11.512;2022-07-06T06:15:19;20.80;57.20
71978;DHT22;59848;48.158;11.512;2022-07-06T06:17:45;21.00;55.10
71978;DHT22;59848;48.158;11.512;2022-07-06T06:20:12;21.20;54.80
71978;DHT22;59848;48.158;11.512;2022-07-06T06:22:46;21.30;55.10
71978;DHT22;59848;48.158;11.512;2022-07-06T06:25:13;21.50;54.30
71978;DHT22;59848;48.158;11.512;2022-07-06T06:27:38;21.70;53.20
71978;DHT22;59848;48.158;11.512;2022-07-06T06:30:04;21.80;52.30
71978;DHT22;59848;48.158;11.512;2022-07-06T06:32:30;22.20;51.80
71978;DHT22;59848;48.158;11.512;2022-07-06T06:34:56;22.10;51.30
71978;DHT22;59848;48.158;11.512;2022-07-06T06:37:21;21.40;51.60
71978;DHT22;59848;48.158;11.512;2022-07-06T06:39:47;21.10;51.90
71978;DHT22;59848;48.158;11.512;2022-07-06T06:42:12;20.90;52.60
71978;DHT22;59848;48.158;11.512;2022-07-06T06:44:38;21.10;51.80
71978;DHT22;59848;48.158;11.512;2022-07-06T06:47:03;21.40;50.90
71978;DHT22;59848;48.158;11.512;2022-07-06T06:49:29;21.70;50.70
71978;DHT22;59848;48.158;11.512;2022-07-06T06:51:54;21.70;50.70
71978;DHT22;59848;48.158;11.512;2022-07-06T06:54:20;22.00;50.70
71978;DHT22;59848;48.158;11.512;2022-07-06T06:56:45;22.20;49.80
71978;DHT22;59848;48.158;11.512;2022-07-06T06:59:11;21.70;50.00
71978;DHT22;59848;48.158;11.512;2022-07-06T07:01:36;21.80;50.90
71978;DHT22;59848;48.158;11.512;2022-07-06T07:04:02;22.00;50.90
71978;DHT22;59848;48.158;11.512;2022-07-06T07:06:28;21.90;51.40
71978;DHT22;59848;48.158;11.512;2022-07-06T07:08:53;22.20;51.00
71978;DHT22;59848;48.158;11.512;2022-07-06T07:11:20;22.40;49.70
71978;DHT22;59848;48.158;11.512;2022-07-06T07:13:46;22.10;47.70
71978;DHT22;59848;48.158;11.512;2022-07-06T07:16:11;22.30;48.60
71978;DHT22;59848;48.158;11.512;2022-07-06T07:18:37;22.50;47.50
71978;DHT22;59848;48.158;11.512;2022-07-06T07:21:03;22.60;46.70
71978;DHT22;59848;48.158;11.512;2022-07-06T07:23:28;22.70;48.00
71978;DHT22;59848;48.158;11.512;2022-07-06T07:25:54;22.70;45.80
71978;DHT22;59848;48.158;11.512;2022-07-06T07:28:19;23.10;44.90
71978;DHT22;59848;48.158;11.512;2022-07-06T07:30:45;23.00;44.80
71978;DHT22;59848;48.158;11.512;2022-07-06T07:33:10;23.50;44.80
71978;DHT22;59848;48.158;11.512;2022-07-06T07:35:36;23.40;43.60
71978;DHT22;59848;48.158;11.512;2022-07-06T07:38:02;22.90;45.70
71978;DHT22;59848;48.158;11.512;2022-07-06T07:40:27;22.50;45.60
71978;DHT22;59848;48.158;11.512;2022-07-06T07:42:53;22.70;44.70
71978;DHT22;59848;48.158;11.512;2022-07-06T07:45:18;22.60;45.00
71978;DHT22;59848;48.158;11.512;2022-07-06T07:47:44;22.70;46.00
71978;DHT22;59848;48.158;11.512;2022-07-06T07:50:09;23.20;45.30
71978;DHT22;59848;48.158;11.512;2022-07-06T07:52:36;23.20;44.90
71978;DHT22;59848;48.158;11.512;2022-07-06T07:55:03;23.10;45.70
71978;DHT22;59848;48.158;11.512;2022-07-06T07:57:28;23.20;45.20
71978;DHT22;59848;48.158;11.512;2022-07-06T07:59:54;23.30;44.90
71978;DHT22;59848;48.158;11.512;2022-07-06T08:02:19;23.40;44.80
71978;DHT22;59848;48.158;11.512;2022-07-06T08:04:46;23.40;45.50
71978;DHT22;59848;48.158;11.512;2022-07-06T08:07:12;23.30;44.90
71978;DHT22;59848;48.158;11.512;2022-07-06T08:09:37;23.00;47.10
71978;DHT22;59848;48.158;11.512;2022-07-06T08:12:03;22.90;45.80
71978;DHT22;59848;48.158;11.512;2022-07-06T08:14:29;23.20;46.00
71978;DHT22;59848;48.158;11.512;2022-07-06T08:16:54;23.30;45.90
71978;DHT22;59848;48.158;11.512;2022-07-06T08:19:20;23.50;45.50
71978;DHT22;59848;48.158;11.512;2022-07-06T08:21:45;23.50;45.60
71978;DHT22;59848;48.158;11.512;2022-07-06T08:24:11;23.80;44.80
71978;DHT22;59848;48.158;11.512;2022-07-06T08:26:37;23.90;44.70
71978;DHT22;59848;48.158;11.512;2022-07-06T08:29:03;23.70;44.30
71978;DHT22;59848;48.158;11.512;2022-07-06T08:31:29;23.90;45.20
71978;DHT22;59848;48.158;11.512;2022-07-06T08:33:55;24.00;43.90
71978;DHT22;59848;48.158;11.512;2022-07-06T08:36:21;23.80;44.00
71978;DHT22;59848;48.158;11.512;2022-07-06T08:38:48;23.80;43.80
71978;DHT22;59848;48.158;11.512;2022-07-06T08:41:18;23.60;45.10
71978;DHT22;59848;48.158;11.512;2022-07-06T08:43:46;24.00;45.40
71978;DHT22;59848;48.158;11.512;2022-07-06T08:46:13;24.00;45.60
71978;DHT22;59848;48.158;11.512;2022-07-06T08:48:40;23.90;44.20
71978;DHT22;59848;48.158;11.512;2022-07-06T08:51:06;24.00;44.90
71978;DHT22;59848;48.158;11.512;2022-07-06T08:53:32;24.00;45.10
71978;DHT22;59848;48.158;11.512;2022-07-06T08:55:58;24.10;44.60
71978;DHT22;59848;48.158;11.512;2022-07-06T08:58:25;24.20;43.50
71978;DHT22;59848;48.158;11.512;2022-07-06T09:00:52;24.30;43.90
71978;DHT22;59848;48.158;11.512;2022-07-06T09:03:19;24.30;44.30
71978;DHT22;59848;48.158;11.512;2022-07-06T09:05:46;24.50;43.90
71978;DHT22;59848;48.158;11.512;2022-07-06T09:08:12;24.50;43.80
71978;DHT22;59848;48.158;11.512;2022-07-06T09:10:39;24.20;44.30
71978;DHT22;59848;48.158;11.512;2022-07-06T09:13:06;24.50;40.70
71978;DHT22;59848;48.158;11.512;2022-07-06T09:15:33;24.40;41.80
71978;DHT22;59848;48.158;11.512;2022-07-06T09:17:59;24.20;40.50
71978;DHT22;59848;48.158;11.512;2022-07-06T09:20:25;24.30;41.50
71978;DHT22;59848;48.158;11.512;2022-07-06T09:22:53;24.30;42.20
71978;DHT22;59848;48.158;11.512;2022-07-06T09:25:22;24.30;42.60
71978;DHT22;59848;48.158;11.512;2022-07-06T09:27:47;24.60;41.50
71978;DHT22;59848;48.158;11.512;2022-07-06T09:30:16;24.60;41.00
71978;DHT22;59848;48.158;11.512;2022-07-06T09:32:43;24.60;41.20
71978;DHT22;59848;48.158;11.512;2022-07-06T09:38:10;24.80;40.90
71978;DHT22;59848;48.158;11.512;2022-07-06T09:40:43;24.40;41.60
71978;DHT22;59848;48.158;11.512;2022-07-06T09:43:23;24.60;41.10
71978;DHT22;59848;48.158;11.512;2022-07-06T09:45:51;24.70;42.30
71978;DHT22;59848;48.158;11.512;2022-07-06T09:48:35;24.80;41.70
71978;DHT22;59848;48.158;11.512;2022-07-06T09:51:01;24.80;42.00
71978;DHT22;59848;48.158;11.512;2022-07-06T09:53:35;24.90;41.00
71978;DHT22;59848;48.158;11.512;2022-07-06T09:56:00;24.90;41.50
71978;DHT22;59848;48.158;11.512;2022-07-06T09:58:27;24.70;41.80
71978;DHT22;59848;48.158;11.512;2022-07-06T10:00:53;24.70;40.30
71978;DHT22;59848;48.158;11.512;2022-07-06T10:03:19;24.70;41.70
71978;DHT22;59848;48.158;11.512;2022-07-06T10:05:46;24.90;40.80
71978;DHT22;59848;48.158;11.512;2022-07-06T10:08:13;24.80;41.10
71978;DHT22;59848;48.158;11.512;2022-07-06T10:10:41;25.20;39.20
71978;DHT22;59848;48.158;11.512;2022-07-06T10:13:08;25.30;39.40
71978;DHT22;59848;48.158;11.512;2022-07-06T10:15:36;25.50;39.90
71978;DHT22;59848;48.158;11.512;2022-07-06T10:18:04;25.50;38.70
71978;DHT22;59848;48.158;11.512;2022-07-06T10:20:33;25.50;39.30
71978;DHT22;59848;48.158;11.512;2022-07-06T10:23:00;25.60;39.10
71978;DHT22;59848;48.158;11.512;2022-07-06T10:25:27;25.40;39.10
71978;DHT22;59848;48.158;11.512;2022-07-06T10:27:53;25.60;38.50
71978;DHT22;59848;48.158;11.512;2022-07-06T10:30:20;25.50;39.10
71978;DHT22;59848;48.158;11.512;2022-07-06T10:32:48;25.40;39.40
71978;DHT22;59848;48.158;11.512;2022-07-06T10:35:14;25.60;38.30
71978;DHT22;59848;48.158;11.512;2022-07-06T10:37:41;25.60;38.70
71978;DHT22;59848;48.158;11.512;2022-07-06T10:40:07;25.60;39.20
71978;DHT22;59848;48.158;11.512;2022-07-06T10:43:00;25.60;38.20
71978;DHT22;59848;48.158;11.512;2022-07-06T10:50:54;26.00;37.80
71978;DHT22;59848;48.158;11.512;2022-07-06T10:53:29;25.70;40.00
71978;DHT22;59848;48.158;11.512;2022-07-06T10:55:56;26.00;38.50
71978;DHT22;59848;48.158;11.512;2022-07-06T11:01:11;26.40;37.00
71978;DHT22;59848;48.158;11.512;2022-07-06T11:03:40;26.10;38.70
71978;DHT22;59848;48.158;11.512;2022-07-06T11:06:15;26.40;37.40
71978;DHT22;59848;48.158;11.512;2022-07-06T11:11:22;26.60;37.20
71978;DHT22;59848;48.158;11.512;2022-07-06T11:16:15;26.50;36.30
71978;DHT22;59848;48.158;11.512;2022-07-06T11:18:46;26.60;35.90
71978;DHT22;59848;48.158;11.512;2022-07-06T11:21:22;26.30;36.10
71978;DHT22;59848;48.158;11.512;2022-07-06T11:23:49;26.70;35.20
71978;DHT22;59848;48.158;11.512;2022-07-06T11:26:16;26.90;36.20
71978;DHT22;59848;48.158;11.512;2022-07-06T11:28:43;26.80;36.00
71978;DHT22;59848;48.158;11.512;2022-07-06T11:31:10;26.20;36.00
71978;DHT22;59848;48.158;11.512;2022-07-06T11:33:36;26.60;35.80
71978;DHT22;59848;48.158;11.512;2022-07-06T11:36:19;27.00;36.40
71978;DHT22;59848;48.158;11.512;2022-07-06T11:38:47;26.70;36.70
71978;DHT22;59848;48.158;11.512;2022-07-06T11:41:13;26.30;37.10
71978;DHT22;59848;48.158;11.512;2022-07-06T11:43:44;25.80;37.70
71978;DHT22;59848;48.158;11.512;2022-07-06T11:46:30;25.70;37.20
71978;DHT22;59848;48.158;11.512;2022-07-06T11:48:58;26.40;37.80
71978;DHT22;59848;48.158;11.512;2022-07-06T11:51:28;26.70;35.10
71978;DHT22;59848;48.158;11.512;2022-07-06T11:53:59;26.60;36.10
71978;DHT22;59848;48.158;11.512;2022-07-06T11:56:29;26.60;34.90
71978;DHT22;59848;48.158;11.512;2022-07-06T11:58:57;26.40;35.40
71978;DHT22;59848;48.158;11.512;2022-07-06T12:01:24;26.30;36.00
71978;DHT22;59848;48.158;11.512;2022-07-06T12:03:50;26.50;35.30
71978;DHT22;59848;48.158;11.512;2022-07-06T12:06:26;26.40;35.10
71978;DHT22;59848;48.158;11.512;2022-07-06T12:08:54;26.50;35.40
71978;DHT22;59848;48.158;11.512;2022-07-06T12:11:25;27.30;34.80
71978;DHT22;59848;48.158;11.512;2022-07-06T12:13:52;27.40;33.50
71978;DHT22;59848;48.158;11.512;2022-07-06T12:16:19;27.80;33.70
71978;DHT22;59848;48.158;11.512;2022-07-06T12:18:47;28.00;32.30
71978;DHT22;59848;48.158;11.512;2022-07-06T12:21:15;27.70;32.80
71978;DHT22;59848;48.158;11.512;2022-07-06T12:23:46;27.50;32.00
71978;DHT22;59848;48.158;11.512;2022-07-06T12:26:14;27.30;33.00
71978;DHT22;59848;48.158;11.512;2022-07-06T12:28:41;27.20;33.60
71978;DHT22;59848;48.158;11.512;2022-07-06T12:31:08;27.40;33.00
71978;DHT22;59848;48.158;11.512;2022-07-06T12:33:33;27.60;32.80
71978;DHT22;59848;48.158;11.512;2022-07-06T12:36:14;27.70;32.80
71978;DHT22;59848;48.158;11.512;2022-07-06T12:38:45;27.30;33.30
71978;DHT22;59848;48.158;11.512;2022-07-06T12:41:32;27.50;33.90
71978;DHT22;59848;48.158;11.512;2022-07-06T12:44:04;27.20;32.90
71978;DHT22;59848;48.158;11.512;2022-07-06T12:46:33;27.70;33.20
71978;DHT22;59848;48.158;11.512;2022-07-06T12:49:02;28.00;32.60
71978;DHT22;59848;48.158;11.512;2022-07-06T12:51:28;27.70;32.50
71978;DHT22;59848;48.158;11.512;2022-07-06T12:54:14;28.40;32.10
71978;DHT22;59848;48.158;11.512;2022-07-06T12:59:36;28.60;32.20
71978;DHT22;59848;48.158;11.512;2022-07-06T13:02:02;27.90;32.00
71978;DHT22;59848;48.158;11.512;2022-07-06T13:04:29;27.90;32.40
71978;DHT22;59848;48.158;11.512;2022-07-06T13:06:57;27.50;32.90
71978;DHT22;59848;48.158;11.512;2022-07-06T13:09:23;27.10;33.90
71978;DHT22;59848;48.158;11.512;2022-07-06T13:11:49;27.20;32.80
71978;DHT22;59848;48.158;11.512;2022-07-06T13:14:15;27.60;33.10
71978;DHT22;59848;48.158;11.512;2022-07-06T13:16:42;27.90;32.80
71978;DHT22;59848;48.158;11.512;2022-07-06T13:19:08;28.20;32.10
71978;DHT22;59848;48.158;11.512;2022-07-06T13:21:34;28.20;32.60
71978;DHT22;59848;48.158;11.512;2022-07-06T13:24:00;28.40;32.30
71978;DHT22;59848;48.158;11.512;2022-07-06T13:26:25;29.30;29.30
71978;DHT22;59848;48.158;11.512;2022-07-06T13:28:51;29.80;30.60
71978;DHT22;59848;48.158;11.512;2022-07-06T13:31:16;29.50;29.50
71978;DHT22;59848;48.158;11.512;2022-07-06T13:33:42;29.60;28.90
71978;DHT22;59848;48.158;11.512;2022-07-06T13:36:07;30.40;28.10
71978;DHT22;59848;48.158;11.512;2022-07-06T13:38:33;31.00;27.70
71978;DHT22;59848;48.158;11.512;2022-07-06T13:40:58;30.10;27.80
71978;DHT22;59848;48.158;11.512;2022-07-06T13:43:24;28.90;28.70
71978;DHT22;59848;48.158;11.512;2022-07-06T13:45:50;28.10;30.20
71978;DHT22;59848;48.158;11.512;2022-07-06T13:48:15;28.70;29.60
71978;DHT22;59848;48.158;11.512;2022-07-06T13:50:41;29.40;29.10
71978;DHT22;59848;48.158;11.512;2022-07-06T13:53:06;29.90;29.60
71978;DHT22;59848;48.158;11.512;2022-07-06T13:55:32;30.20;29.30
71978;DHT22;59848;48.158;11.512;2022-07-06T13:57:58;30.30;29.90
71978;DHT22;59848;48.158;11.512;2022-07-06T14:00:24;31.00;27.80
71978;DHT22;59848;48.158;11.512;2022-07-06T14:02:50;30.70;28.60
71978;DHT22;59848;48.158;11.512;2022-07-06T14:05:16;29.70;30.10
71978;DHT22;59848;48.158;11.512;2022-07-06T14:07:41;30.20;30.10
71978;DHT22;59848;48.158;11.512;2022-07-06T14:10:07;31.90;27.70
71978;DHT22;59848;48.158;11.512;2022-07-06T14:12:33;32.80;26.50
71978;DHT22;59848;48.158;11.512;2022-07-06T14:14:58;33.50;25.60
71978;DHT22;59848;48.158;11.512;2022-07-06T14:17:25;32.50;25.40
71978;DHT22;59848;48.158;11.512;2022-07-06T14:19:52;31.70;27.40
71978;DHT22;59848;48.158;11.512;2022-07-06T14:22:17;32.20;26.30
71978;DHT22;59848;48.158;11.512;2022-07-06T14:24:43;33.30;24.80
71978;DHT22;59848;48.158;11.512;2022-07-06T14:27:08;33.60;23.70
71978;DHT22;59848;48.158;11.512;2022-07-06T14:29:34;33.80;23.60
71978;DHT22;59848;48.158;11.512;2022-07-06T14:31:59;32.80;24.60
71978;DHT22;59848;48.158;11.512;2022-07-06T14:34:25;32.60;25.90
71978;DHT22;59848;48.158;11.512;2022-07-06T14:36:51;32.70;25.00
71978;DHT22;59848;48.158;11.512;2022-07-06T14:39:17;32.20;25.00
71978;DHT22;59848;48.158;11.512;2022-07-06T14:41:42;32.60;25.50
71978;DHT22;59848;48.158;11.512;2022-07-06T14:44:08;33.70;24.20
71978;DHT22;59848;48.158;11.512;2022-07-06T14:46:34;34.00;23.70
71978;DHT22;59848;48.158;11.512;2022-07-06T14:49:00;33.10;24.10
71978;DHT22;59848;48.158;11.512;2022-07-06T14:51:26;32.10;25.20
71978;DHT22;59848;48.158;11.512;2022-07-06T14:53:51;32.90;24.10
71978;DHT22;59848;48.158;11.512;2022-07-06T14:56:17;34.00;23.40
71978;DHT22;59848;48.158;11.512;2022-07-06T14:58:42;35.10;22.20
71978;DHT22;59848;48.158;11.512;2022-07-06T15:01:09;34.60;22.10
71978;DHT22;59848;48.158;11.512;2022-07-06T15:03:34;34.70;22.40
71978;DHT22;59848;48.158;11.512;2022-07-06T15:06:00;35.10;22.00
71978;DHT22;59848;48.158;11.512;2022-07-06T15:08:25;34.80;22.30
71978;DHT22;59848;48.158;11.512;2022-07-06T15:10:51;35.20;21.90
71978;DHT22;59848;48.158;11.512;2022-07-06T15:13:17;35.80;21.50
71978;DHT22;59848;48.158;11.512;2022-07-06T15:15:42;35.80;21.20
71978;DHT22;59848;48.158;11.512;2022-07-06T15:18:08;35.80;20.90
71978;DHT22;59848;48.158;11.512;2022-07-06T15:20:33;33.80;23.20
71978;DHT22;59848;48.158;11.512;2022-07-06T15:22:59;33.80;23.00
71978;DHT22;59848;48.158;11.512;2022-07-06T15:25:25;32.40;24.70
71978;DHT22;59848;48.158;11.512;2022-07-06T15:27:51;31.70;25.50
71978;DHT22;59848;48.158;11.512;2022-07-06T15:30:17;32.50;25.20
71978;DHT22;59848;48.158;11.512;2022-07-06T15:32:43;33.60;23.40